El Tajin National Airport


Codes: MMPA/PAZ
Name: El Tajin National Airport
City: Poza Rica
Country: Mexico
Elevation: 497 ft.
Wikipedia:

Photos at El Tajin National Airport


   Photos courtesy of SpottingLog. You can add your own sightings and photos by signing up for a free trial today.



No photos found.

Weather at El Tajin National Airport


Time (UTC)DescriptionTempratureWindCloud coverageVisibilityPressureHumidity
15-Apr-2024 18:00Overcast Clouds29°C7 mph, NE91%10000m1012hPa60%
15-Apr-2024 21:00Scattered Clouds33°C16 mph, E43%10000m1008hPa49%
16-Apr-2024 00:00Broken Clouds29°C16 mph, E57%10000m1007hPa59%
16-Apr-2024 03:00Overcast Clouds24°C2 mph, NE89%10000m1009hPa85%
16-Apr-2024 06:00Broken Clouds23°C2 mph, NW60%10000m1009hPa92%
16-Apr-2024 09:00Scattered Clouds22°C7 mph, W29%10000m1007hPa96%
16-Apr-2024 12:00Scattered Clouds22°C4 mph, W40%10000m1009hPa96%
16-Apr-2024 15:00Scattered Clouds29°C4 mph, NW26%10000m1009hPa61%
16-Apr-2024 18:00Broken Clouds36°C7 mph, E53%10000m1006hPa35%
16-Apr-2024 21:00Overcast Clouds37°C18 mph, E100%10000m1004hPa37%
17-Apr-2024 00:00Overcast Clouds29°C13 mph, E92%10000m1005hPa60%
17-Apr-2024 03:00Few Clouds23°C2 mph, NW17%10000m1009hPa95%
17-Apr-2024 06:00Scattered Clouds23°C4 mph, NW47%10000m1010hPa97%
17-Apr-2024 09:00Broken Clouds24°C4 mph, NW80%10000m1009hPa92%
17-Apr-2024 12:00Overcast Clouds23°C4 mph, W89%10000m1009hPa92%
17-Apr-2024 15:00Broken Clouds29°C4 mph, NW69%10000m1011hPa60%
17-Apr-2024 18:00Broken Clouds37°C7 mph, NE59%10000m1008hPa34%
17-Apr-2024 21:00Scattered Clouds36°C18 mph, E33%10000m1006hPa41%
18-Apr-2024 00:00Scattered Clouds29°C13 mph, E46%10000m1006hPa63%
18-Apr-2024 03:00Broken Clouds24°C7 mph, E81%10000m1010hPa94%
18-Apr-2024 06:00Overcast Clouds24°C4 mph, N88%10000m1010hPa98%
18-Apr-2024 09:00Overcast Clouds24°C2 mph, N99%10000m1010hPa97%
18-Apr-2024 12:00Light Rain24°C4 mph, NW99%10000m1012hPa96%
18-Apr-2024 15:00Light Rain27°C7 mph, N99%10000m1014hPa75%
18-Apr-2024 18:00Overcast Clouds32°C7 mph, N85%10000m1012hPa51%
18-Apr-2024 21:00Scattered Clouds37°C11 mph, NE40%10000m1007hPa38%
19-Apr-2024 00:00Scattered Clouds29°C13 mph, E49%10000m1008hPa67%
19-Apr-2024 03:00Broken Clouds25°C7 mph, E73%10000m1009hPa88%
19-Apr-2024 06:00Light Rain25°C4 mph, N86%10000m1010hPa86%
19-Apr-2024 09:00Light Rain23°C2 mph, NW70%10000m1010hPa97%
19-Apr-2024 12:00Light Rain23°C4 mph, NW71%10000m1011hPa95%
19-Apr-2024 15:00Broken Clouds28°C7 mph, NW55%10000m1012hPa64%
19-Apr-2024 18:00Scattered Clouds35°C7 mph, NE47%10000m1010hPa41%
19-Apr-2024 21:00Clear Sky35°C13 mph, NE4%10000m1007hPa44%
20-Apr-2024 00:00Scattered Clouds28°C13 mph, E30%10000m1007hPa69%
20-Apr-2024 03:00Scattered Clouds24°C2 mph, NE38%10000m1009hPa91%
20-Apr-2024 06:00Light Rain23°C2 mph, N48%10000m1010hPa95%
20-Apr-2024 09:00Scattered Clouds23°C4 mph, NW30%10000m1009hPa98%
20-Apr-2024 12:00Light Rain24°C4 mph, NW55%10000m1012hPa95%
20-Apr-2024 15:00Light Rain26°C4 mph, NW99%10000m1012hPa82%